Overview Statistics Trail Chart Weather Telemetry Raw packets
 

This is the latest recevied weather packets stored in our database for station/object N7WSS. If no packets are shown the sender has not sent any weather packets the latest 10 day(s).

<< 13 14 15 16 17 18 19 >>
Time Temp. Humidity Pressure Rain* Wind** Luminosity Snow
1788540213 31.11° C 51% 1015.5 hPa 0 mm - - -
1788539910 30.56° C 55% 1015.6 hPa 0 mm - - -
1788539609 30° C 54% 1015.5 hPa 0 mm - - -
1788539308 29.44° C 56% 1015.4 hPa 0 mm - - -
1788539004 29.44° C 56% 1015.5 hPa 0 mm - - -
1788538699 28.33° C 58% 1015.4 hPa 0 mm - - -
1788538399 28.89° C 57% 1015.6 hPa 0 mm - - -
1788538094 28.33° C 58% 1015.5 hPa 0 mm - - -
1788537789 28.33° C 59% 1015.3 hPa 0 mm - - -
1788537489 27.78° C 60% 1015.4 hPa 0 mm - - -
1788537184 28.89° C 58% 1015.3 hPa 0 mm - - -
1788536883 28.89° C 58% 1015.3 hPa 0 mm - - -
1788536578 28.33° C 59% 1015.3 hPa 0 mm - - -
1788536273 28.33° C 61% 1015.4 hPa 0 mm - - -
1788535969 27.78° C 61% 1015.4 hPa 0 mm - - -
1788535665 27.78° C 61% 1015.3 hPa 0 mm - - -
1788535360 27.22° C 63% 1015.4 hPa 0 mm - - -
1788535055 27.22° C 64% 1015.4 hPa 0 mm - - -
1788534753 28.33° C 60% 1015.4 hPa 0 mm - - -
1788534450 28.33° C 60% 1015.3 hPa 0 mm - - -
1788534145 27.78° C 62% 1015.3 hPa 0 mm - - -
1788533843 27.22° C 62% 1015.3 hPa 0 mm - - -
1788533539 27.22° C 64% 1015.4 hPa 0 mm - - -
1788533234 27.78° C 64% 1015.3 hPa 0 mm - - -
1788532930 26.67° C 67% 1015.3 hPa 0 mm - - -

* Rain latest hour (hover to see other rain measurements)
** Current wind speed in m/s (hover to see current wind gust speed)